sensor_id;sensor_type;location;lat;lon;timestamp;pressure;altitude;pressure_sealevel;temperature;humidity
51530;BME280;37613;51.788;21.582;2023-07-29T00:02:01;99349.98;;;15.51;100.00
51530;BME280;37613;51.788;21.582;2023-07-29T00:06:03;99352.52;;;15.47;100.00
51530;BME280;37613;51.788;21.582;2023-07-29T00:10:06;99356.06;;;15.44;100.00
51530;BME280;37613;51.788;21.582;2023-07-29T00:14:08;99354.20;;;15.39;100.00
51530;BME280;37613;51.788;21.582;2023-07-29T00:18:10;99358.51;;;15.34;100.00
51530;BME280;37613;51.788;21.582;2023-07-29T00:22:12;99361.02;;;15.30;100.00
51530;BME280;37613;51.788;21.582;2023-07-29T00:26:14;99361.34;;;15.25;100.00
51530;BME280;37613;51.788;21.582;2023-07-29T00:30:16;99362.88;;;15.24;100.00
51530;BME280;37613;51.788;21.582;2023-07-29T00:34:18;99361.03;;;15.25;100.00
51530;BME280;37613;51.788;21.582;2023-07-29T00:38:21;99362.17;;;15.27;100.00
51530;BME280;37613;51.788;21.582;2023-07-29T00:42:26;99362.77;;;15.30;100.00
51530;BME280;37613;51.788;21.582;2023-07-29T00:46:28;99364.60;;;15.35;100.00
51530;BME280;37613;51.788;21.582;2023-07-29T00:50:32;99370.98;;;15.40;100.00
51530;BME280;37613;51.788;21.582;2023-07-29T00:54:34;99375.45;;;15.44;100.00
51530;BME280;37613;51.788;21.582;2023-07-29T00:58:36;99373.67;;;15.50;100.00
51530;BME280;37613;51.788;21.582;2023-07-29T01:02:39;99375.42;;;15.55;100.00
51530;BME280;37613;51.788;21.582;2023-07-29T01:07:10;99378.15;;;15.59;100.00
51530;BME280;37613;51.788;21.582;2023-07-29T01:20:09;99384.81;;;15.73;100.00
51530;BME280;37613;51.788;21.582;2023-07-29T01:24:13;99390.13;;;15.75;100.00
51530;BME280;37613;51.788;21.582;2023-07-29T01:28:15;99390.08;;;15.77;100.00
51530;BME280;37613;51.788;21.582;2023-07-29T01:32:29;99391.39;;;15.78;100.00
51530;BME280;37613;51.788;21.582;2023-07-29T01:36:36;99390.90;;;15.79;100.00
51530;BME280;37613;51.788;21.582;2023-07-29T01:40:42;99387.69;;;15.77;100.00
51530;BME280;37613;51.788;21.582;2023-07-29T01:44:45;99388.23;;;15.75;100.00
51530;BME280;37613;51.788;21.582;2023-07-29T01:48:47;99391.39;;;15.74;100.00
51530;BME280;37613;51.788;21.582;2023-07-29T01:52:49;99394.83;;;15.73;100.00
51530;BME280;37613;51.788;21.582;2023-07-29T01:56:51;99393.71;;;15.73;100.00
51530;BME280;37613;51.788;21.582;2023-07-29T02:06:06;99398.96;;;15.76;100.00
51530;BME280;37613;51.788;21.582;2023-07-29T02:10:08;99401.98;;;15.76;100.00
51530;BME280;37613;51.788;21.582;2023-07-29T02:14:10;99408.03;;;15.78;100.00
51530;BME280;37613;51.788;21.582;2023-07-29T02:18:15;99414.35;;;15.80;100.00
51530;BME280;37613;51.788;21.582;2023-07-29T02:22:18;99423.27;;;15.83;100.00
51530;BME280;37613;51.788;21.582;2023-07-29T02:26:19;99426.33;;;15.86;100.00
51530;BME280;37613;51.788;21.582;2023-07-29T02:30:21;99434.80;;;15.91;100.00
51530;BME280;37613;51.788;21.582;2023-07-29T02:34:24;99440.46;;;15.95;100.00
51530;BME280;37613;51.788;21.582;2023-07-29T02:38:26;99440.92;;;15.98;100.00
51530;BME280;37613;51.788;21.582;2023-07-29T02:42:28;99441.14;;;16.00;100.00
51530;BME280;37613;51.788;21.582;2023-07-29T02:46:30;99441.27;;;16.04;100.00
51530;BME280;37613;51.788;21.582;2023-07-29T02:50:34;99444.25;;;16.07;100.00
51530;BME280;37613;51.788;21.582;2023-07-29T02:54:36;99450.34;;;16.13;100.00
51530;BME280;37613;51.788;21.582;2023-07-29T02:58:38;99451.42;;;16.26;100.00
51530;BME280;37613;51.788;21.582;2023-07-29T03:02:40;99442.92;;;16.28;100.00
51530;BME280;37613;51.788;21.582;2023-07-29T03:12:05;99446.36;;;16.29;100.00
51530;BME280;37613;51.788;21.582;2023-07-29T03:20:11;99461.34;;;16.30;100.00
51530;BME280;37613;51.788;21.582;2023-07-29T03:24:13;99462.00;;;16.31;100.00
51530;BME280;37613;51.788;21.582;2023-07-29T03:28:15;99466.55;;;16.31;100.00
51530;BME280;37613;51.788;21.582;2023-07-29T03:32:17;99463.05;;;16.31;100.00
51530;BME280;37613;51.788;21.582;2023-07-29T03:36:21;99463.48;;;16.30;100.00
51530;BME280;37613;51.788;21.582;2023-07-29T03:40:23;99468.33;;;16.31;100.00
51530;BME280;37613;51.788;21.582;2023-07-29T03:44:25;99468.87;;;16.33;100.00
51530;BME280;37613;51.788;21.582;2023-07-29T03:48:27;99475.39;;;16.36;100.00
51530;BME280;37613;51.788;21.582;2023-07-29T03:52:29;99478.77;;;16.40;100.00
51530;BME280;37613;51.788;21.582;2023-07-29T03:56:31;99480.09;;;16.43;100.00
51530;BME280;37613;51.788;21.582;2023-07-29T04:00:33;99483.52;;;16.45;100.00
51530;BME280;37613;51.788;21.582;2023-07-29T04:04:35;99486.73;;;16.49;100.00
51530;BME280;37613;51.788;21.582;2023-07-29T04:08:37;99486.98;;;16.49;100.00
51530;BME280;37613;51.788;21.582;2023-07-29T04:12:39;99486.71;;;16.50;100.00
51530;BME280;37613;51.788;21.582;2023-07-29T04:16:41;99492.16;;;16.51;100.00
51530;BME280;37613;51.788;21.582;2023-07-29T04:20:44;99495.84;;;16.53;100.00
51530;BME280;37613;51.788;21.582;2023-07-29T04:24:46;99501.19;;;16.55;100.00
51530;BME280;37613;51.788;21.582;2023-07-29T04:28:48;99508.90;;;16.58;100.00
51530;BME280;37613;51.788;21.582;2023-07-29T04:32:50;99509.58;;;16.62;100.00
51530;BME280;37613;51.788;21.582;2023-07-29T04:36:52;99512.09;;;16.65;100.00
51530;BME280;37613;51.788;21.582;2023-07-29T04:40:54;99512.98;;;16.69;100.00
51530;BME280;37613;51.788;21.582;2023-07-29T04:44:56;99515.14;;;16.71;100.00
51530;BME280;37613;51.788;21.582;2023-07-29T04:48:58;99517.40;;;16.71;100.00
51530;BME280;37613;51.788;21.582;2023-07-29T04:53:00;99521.63;;;16.71;100.00
51530;BME280;37613;51.788;21.582;2023-07-29T04:57:02;99526.57;;;16.76;100.00
51530;BME280;37613;51.788;21.582;2023-07-29T05:01:05;99534.72;;;16.82;100.00
51530;BME280;37613;51.788;21.582;2023-07-29T05:05:07;99540.41;;;16.92;100.00
51530;BME280;37613;51.788;21.582;2023-07-29T05:09:17;99540.16;;;17.04;100.00
51530;BME280;37613;51.788;21.582;2023-07-29T05:13:20;99543.89;;;17.13;100.00
51530;BME280;37613;51.788;21.582;2023-07-29T05:17:22;99548.54;;;17.27;100.00
51530;BME280;37613;51.788;21.582;2023-07-29T05:21:24;99556.72;;;17.50;100.00
51530;BME280;37613;51.788;21.582;2023-07-29T05:25:27;99559.09;;;17.59;100.00
51530;BME280;37613;51.788;21.582;2023-07-29T05:29:29;99559.83;;;17.64;100.00
51530;BME280;37613;51.788;21.582;2023-07-29T05:33:33;99565.39;;;17.78;100.00
51530;BME280;37613;51.788;21.582;2023-07-29T05:37:38;99568.27;;;18.29;100.00
51530;BME280;37613;51.788;21.582;2023-07-29T05:41:41;99571.80;;;19.16;100.00
51530;BME280;37613;51.788;21.582;2023-07-29T05:45:43;99576.33;;;19.81;100.00
51530;BME280;37613;51.788;21.582;2023-07-29T05:49:45;99573.61;;;20.16;100.00
51530;BME280;37613;51.788;21.582;2023-07-29T05:53:47;99576.40;;;20.15;100.00
51530;BME280;37613;51.788;21.582;2023-07-29T05:57:49;99574.69;;;19.96;100.00
51530;BME280;37613;51.788;21.582;2023-07-29T06:01:51;99573.09;;;19.75;100.00
51530;BME280;37613;51.788;21.582;2023-07-29T06:05:54;99580.67;;;19.60;100.00
51530;BME280;37613;51.788;21.582;2023-07-29T06:09:56;99581.79;;;19.59;100.00
51530;BME280;37613;51.788;21.582;2023-07-29T06:13:59;99581.27;;;20.02;100.00
51530;BME280;37613;51.788;21.582;2023-07-29T06:18:01;99585.76;;;20.62;100.00
51530;BME280;37613;51.788;21.582;2023-07-29T06:22:03;99583.75;;;21.24;100.00
51530;BME280;37613;51.788;21.582;2023-07-29T06:26:07;99585.02;;;21.76;100.00
51530;BME280;37613;51.788;21.582;2023-07-29T06:30:09;99588.42;;;22.20;100.00
51530;BME280;37613;51.788;21.582;2023-07-29T06:34:11;99594.44;;;22.58;100.00
51530;BME280;37613;51.788;21.582;2023-07-29T06:38:13;99601.08;;;23.01;98.04
51530;BME280;37613;51.788;21.582;2023-07-29T06:42:15;99607.70;;;23.46;96.55
51530;BME280;37613;51.788;21.582;2023-07-29T06:46:17;99612.36;;;23.56;96.00
51530;BME280;37613;51.788;21.582;2023-07-29T06:50:19;99611.17;;;23.82;96.83
51530;BME280;37613;51.788;21.582;2023-07-29T06:54:24;99609.76;;;23.79;94.23
51530;BME280;37613;51.788;21.582;2023-07-29T06:58:27;99608.02;;;23.32;88.54
51530;BME280;37613;51.788;21.582;2023-07-29T07:02:29;99605.77;;;22.66;88.37
51530;BME280;37613;51.788;21.582;2023-07-29T07:06:31;99605.21;;;22.16;89.90
51530;BME280;37613;51.788;21.582;2023-07-29T07:10:33;99602.04;;;21.87;88.35
51530;BME280;37613;51.788;21.582;2023-07-29T07:14:35;99604.38;;;22.04;90.04
51530;BME280;37613;51.788;21.582;2023-07-29T07:18:37;99606.48;;;22.11;88.33
51530;BME280;37613;51.788;21.582;2023-07-29T07:22:39;99607.89;;;21.98;88.83
51530;BME280;37613;51.788;21.582;2023-07-29T07:26:41;99603.10;;;21.79;88.78
51530;BME280;37613;51.788;21.582;2023-07-29T07:30:43;99605.30;;;21.71;88.67
51530;BME280;37613;51.788;21.582;2023-07-29T07:34:47;99608.80;;;21.81;86.04
51530;BME280;37613;51.788;21.582;2023-07-29T07:38:49;99608.71;;;21.69;82.83
51530;BME280;37613;51.788;21.582;2023-07-29T07:42:51;99609.55;;;21.64;85.85
51530;BME280;37613;51.788;21.582;2023-07-29T07:46:53;99611.98;;;22.03;84.35
51530;BME280;37613;51.788;21.582;2023-07-29T07:50:55;99615.35;;;22.51;83.43
51530;BME280;37613;51.788;21.582;2023-07-29T07:54:57;99621.02;;;22.88;82.58
51530;BME280;37613;51.788;21.582;2023-07-29T07:58:59;99620.34;;;22.94;80.74
51530;BME280;37613;51.788;21.582;2023-07-29T08:03:01;99616.71;;;23.30;82.24
51530;BME280;37613;51.788;21.582;2023-07-29T08:07:03;99616.69;;;23.67;80.13
51530;BME280;37613;51.788;21.582;2023-07-29T08:11:06;99613.64;;;23.76;79.04
51530;BME280;37613;51.788;21.582;2023-07-29T08:15:09;99614.29;;;23.43;77.60
51530;BME280;37613;51.788;21.582;2023-07-29T08:19:11;99607.48;;;23.24;77.48
51530;BME280;37613;51.788;21.582;2023-07-29T08:23:13;99608.77;;;23.50;78.47
51530;BME280;37613;51.788;21.582;2023-07-29T08:27:15;99608.38;;;24.01;79.30
51530;BME280;37613;51.788;21.582;2023-07-29T08:31:20;99609.17;;;24.47;77.26
51530;BME280;37613;51.788;21.582;2023-07-29T08:35:22;99603.64;;;24.72;74.51
51530;BME280;37613;51.788;21.582;2023-07-29T08:39:24;99596.80;;;24.84;74.09
51530;BME280;37613;51.788;21.582;2023-07-29T08:43:28;99593.79;;;25.02;72.62
51530;BME280;37613;51.788;21.582;2023-07-29T08:47:34;99591.94;;;25.19;70.55
51530;BME280;37613;51.788;21.582;2023-07-29T08:51:36;99591.14;;;25.31;73.10
51530;BME280;37613;51.788;21.582;2023-07-29T08:55:39;99593.48;;;25.47;68.47
51530;BME280;37613;51.788;21.582;2023-07-29T08:59:41;99589.42;;;25.50;68.50
51530;BME280;37613;51.788;21.582;2023-07-29T09:03:44;99589.59;;;25.81;71.24
51530;BME280;37613;51.788;21.582;2023-07-29T09:07:46;99584.38;;;26.25;70.05
51530;BME280;37613;51.788;21.582;2023-07-29T09:11:50;99587.30;;;26.32;66.00
51530;BME280;37613;51.788;21.582;2023-07-29T09:15:57;99585.58;;;26.24;63.49
51530;BME280;37613;51.788;21.582;2023-07-29T09:19:59;99582.31;;;26.35;65.84
51530;BME280;37613;51.788;21.582;2023-07-29T09:24:05;99581.37;;;26.46;62.94
51530;BME280;37613;51.788;21.582;2023-07-29T09:28:14;99582.77;;;26.46;61.45
51530;BME280;37613;51.788;21.582;2023-07-29T09:32:20;99579.60;;;26.18;62.40
51530;BME280;37613;51.788;21.582;2023-07-29T09:36:23;99574.40;;;26.22;63.84
51530;BME280;37613;51.788;21.582;2023-07-29T09:40:25;99574.59;;;26.28;63.20
51530;BME280;37613;51.788;21.582;2023-07-29T09:44:27;99577.31;;;26.34;62.77
51530;BME280;37613;51.788;21.582;2023-07-29T09:48:38;99575.77;;;26.30;61.09
51530;BME280;37613;51.788;21.582;2023-07-29T09:52:41;99569.73;;;26.34;61.10
51530;BME280;37613;51.788;21.582;2023-07-29T09:56:43;99564.83;;;26.43;60.25
51530;BME280;37613;51.788;21.582;2023-07-29T10:00:47;99564.32;;;26.35;58.88
51530;BME280;37613;51.788;21.582;2023-07-29T10:04:49;99558.92;;;26.25;59.20
51530;BME280;37613;51.788;21.582;2023-07-29T10:08:52;99560.15;;;26.31;58.46
51530;BME280;37613;51.788;21.582;2023-07-29T10:12:56;99562.40;;;26.38;58.45
51530;BME280;37613;51.788;21.582;2023-07-29T10:16:59;99561.88;;;26.50;57.56
51530;BME280;37613;51.788;21.582;2023-07-29T10:21:02;99558.70;;;26.16;56.43
51530;BME280;37613;51.788;21.582;2023-07-29T10:25:18;99554.81;;;25.98;57.66
51530;BME280;37613;51.788;21.582;2023-07-29T10:29:20;99553.80;;;25.75;57.94
51530;BME280;37613;51.788;21.582;2023-07-29T10:33:25;99554.88;;;25.75;58.55
51530;BME280;37613;51.788;21.582;2023-07-29T10:37:28;99556.15;;;26.02;57.65
51530;BME280;37613;51.788;21.582;2023-07-29T10:41:55;99554.70;;;26.27;57.09
51530;BME280;37613;51.788;21.582;2023-07-29T10:46:23;99557.36;;;26.43;55.41
51530;BME280;37613;51.788;21.582;2023-07-29T10:50:25;99548.96;;;26.34;55.44
51530;BME280;37613;51.788;21.582;2023-07-29T10:54:30;99547.11;;;26.06;54.32
51530;BME280;37613;51.788;21.582;2023-07-29T10:58:32;99542.29;;;26.00;55.91
51530;BME280;37613;51.788;21.582;2023-07-29T11:02:38;99536.49;;;26.15;55.20
51530;BME280;37613;51.788;21.582;2023-07-29T11:11:12;99529.06;;;26.41;54.26
51530;BME280;37613;51.788;21.582;2023-07-29T11:15:16;99529.34;;;26.31;54.74
51530;BME280;37613;51.788;21.582;2023-07-29T11:19:19;99533.40;;;26.13;55.39
51530;BME280;37613;51.788;21.582;2023-07-29T11:23:33;99529.13;;;26.13;54.82
51530;BME280;37613;51.788;21.582;2023-07-29T11:27:36;99523.69;;;26.40;55.02
51530;BME280;37613;51.788;21.582;2023-07-29T11:31:40;99519.90;;;26.62;54.96
51530;BME280;37613;51.788;21.582;2023-07-29T11:35:42;99513.94;;;26.78;53.67
51530;BME280;37613;51.788;21.582;2023-07-29T11:39:44;99513.33;;;26.94;53.71
51530;BME280;37613;51.788;21.582;2023-07-29T11:43:47;99510.42;;;26.88;53.68
51530;BME280;37613;51.788;21.582;2023-07-29T11:47:49;99507.33;;;26.97;53.21
51530;BME280;37613;51.788;21.582;2023-07-29T11:51:52;99508.16;;;26.94;52.62
51530;BME280;37613;51.788;21.582;2023-07-29T11:55:55;99504.92;;;26.92;52.27
51530;BME280;37613;51.788;21.582;2023-07-29T11:59:57;99507.46;;;27.03;52.51
51530;BME280;37613;51.788;21.582;2023-07-29T12:03:59;99506.63;;;27.13;52.80
51530;BME280;37613;51.788;21.582;2023-07-29T12:08:02;99504.30;;;27.03;52.31
51530;BME280;37613;51.788;21.582;2023-07-29T12:12:05;99499.47;;;26.74;51.95
51530;BME280;37613;51.788;21.582;2023-07-29T12:16:07;99497.49;;;26.58;52.26
51530;BME280;37613;51.788;21.582;2023-07-29T12:20:10;99492.35;;;26.66;52.81
51530;BME280;37613;51.788;21.582;2023-07-29T12:24:12;99488.38;;;26.83;52.96
51530;BME280;37613;51.788;21.582;2023-07-29T12:28:15;99482.27;;;26.94;51.86
51530;BME280;37613;51.788;21.582;2023-07-29T12:32:17;99477.06;;;26.79;51.12
51530;BME280;37613;51.788;21.582;2023-07-29T12:36:19;99474.73;;;26.50;51.96
51530;BME280;37613;51.788;21.582;2023-07-29T12:40:25;99470.58;;;26.30;52.51
51530;BME280;37613;51.788;21.582;2023-07-29T12:44:33;99467.09;;;26.14;52.47
51530;BME280;37613;51.788;21.582;2023-07-29T12:48:35;99459.80;;;26.07;53.04
51530;BME280;37613;51.788;21.582;2023-07-29T12:52:37;99455.31;;;26.14;52.12
51530;BME280;37613;51.788;21.582;2023-07-29T12:56:40;99448.73;;;26.22;52.46
51530;BME280;37613;51.788;21.582;2023-07-29T13:00:42;99446.45;;;26.41;53.05
51530;BME280;37613;51.788;21.582;2023-07-29T13:04:44;99444.42;;;26.61;53.03
51530;BME280;37613;51.788;21.582;2023-07-29T13:08:46;99441.65;;;26.67;52.36
51530;BME280;37613;51.788;21.582;2023-07-29T13:12:49;99442.77;;;26.69;51.96
51530;BME280;37613;51.788;21.582;2023-07-29T13:16:51;99443.02;;;26.70;51.88
51530;BME280;37613;51.788;21.582;2023-07-29T13:20:53;99442.65;;;26.72;52.04
51530;BME280;37613;51.788;21.582;2023-07-29T13:24:55;99434.09;;;26.74;51.66
51530;BME280;37613;51.788;21.582;2023-07-29T13:28:58;99429.97;;;26.80;51.98
51530;BME280;37613;51.788;21.582;2023-07-29T13:33:00;99428.88;;;26.87;52.22
51530;BME280;37613;51.788;21.582;2023-07-29T13:37:02;99429.84;;;26.89;52.22
51530;BME280;37613;51.788;21.582;2023-07-29T13:41:04;99424.98;;;26.90;52.15
51530;BME280;37613;51.788;21.582;2023-07-29T13:45:07;99422.54;;;26.93;52.37
51530;BME280;37613;51.788;21.582;2023-07-29T13:49:10;99416.54;;;26.97;52.37
51530;BME280;37613;51.788;21.582;2023-07-29T13:53:13;99412.14;;;27.06;52.46
51530;BME280;37613;51.788;21.582;2023-07-29T13:57:15;99406.30;;;27.08;52.45
51530;BME280;37613;51.788;21.582;2023-07-29T14:01:17;99401.80;;;27.10;52.53
51530;BME280;37613;51.788;21.582;2023-07-29T14:05:20;99401.60;;;26.93;52.15
51530;BME280;37613;51.788;21.582;2023-07-29T14:09:22;99400.45;;;26.66;52.51
51530;BME280;37613;51.788;21.582;2023-07-29T14:13:24;99391.27;;;26.43;52.56
51530;BME280;37613;51.788;21.582;2023-07-29T14:17:26;99389.98;;;26.22;52.59
51530;BME280;37613;51.788;21.582;2023-07-29T14:21:28;99381.56;;;26.17;52.94
51530;BME280;37613;51.788;21.582;2023-07-29T14:25:30;99379.98;;;26.16;53.12
51530;BME280;37613;51.788;21.582;2023-07-29T14:29:32;99376.50;;;26.17;53.46
51530;BME280;37613;51.788;21.582;2023-07-29T14:33:34;99373.44;;;26.30;53.48
51530;BME280;37613;51.788;21.582;2023-07-29T14:37:36;99374.14;;;26.40;53.13
51530;BME280;37613;51.788;21.582;2023-07-29T14:41:39;99376.45;;;26.37;53.56
51530;BME280;37613;51.788;21.582;2023-07-29T14:45:41;99377.64;;;26.26;53.67
51530;BME280;37613;51.788;21.582;2023-07-29T14:49:44;99378.83;;;26.15;53.86
51530;BME280;37613;51.788;21.582;2023-07-29T14:53:47;99375.39;;;26.14;53.88
51530;BME280;37613;51.788;21.582;2023-07-29T14:57:49;99371.67;;;26.15;53.89
51530;BME280;37613;51.788;21.582;2023-07-29T15:01:51;99373.98;;;26.09;53.91
51530;BME280;37613;51.788;21.582;2023-07-29T15:05:53;99368.44;;;26.13;54.25
51530;BME280;37613;51.788;21.582;2023-07-29T15:09:55;99361.21;;;26.17;54.27
51530;BME280;37613;51.788;21.582;2023-07-29T15:13:58;99360.70;;;26.15;54.42
51530;BME280;37613;51.788;21.582;2023-07-29T15:18:00;99360.84;;;26.07;54.62
51530;BME280;37613;51.788;21.582;2023-07-29T15:22:02;99355.64;;;26.05;54.93
51530;BME280;37613;51.788;21.582;2023-07-29T15:26:06;99355.02;;;26.05;55.19
51530;BME280;37613;51.788;21.582;2023-07-29T15:30:08;99360.91;;;26.07;55.25
51530;BME280;37613;51.788;21.582;2023-07-29T15:34:10;99360.87;;;26.12;55.34
51530;BME280;37613;51.788;21.582;2023-07-29T15:38:12;99361.67;;;26.17;55.47
51530;BME280;37613;51.788;21.582;2023-07-29T15:42:14;99359.46;;;26.14;55.54
51530;BME280;37613;51.788;21.582;2023-07-29T15:46:16;99356.26;;;26.07;55.60
51530;BME280;37613;51.788;21.582;2023-07-29T15:50:18;99351.34;;;26.00;55.80
51530;BME280;37613;51.788;21.582;2023-07-29T15:54:20;99350.90;;;25.96;56.01
51530;BME280;37613;51.788;21.582;2023-07-29T15:58:22;99346.65;;;25.92;56.10
51530;BME280;37613;51.788;21.582;2023-07-29T16:02:26;99340.02;;;25.90;56.28
51530;BME280;37613;51.788;21.582;2023-07-29T16:06:28;99336.04;;;25.90;56.36
51530;BME280;37613;51.788;21.582;2023-07-29T16:10:30;99333.46;;;25.91;56.58
51530;BME280;37613;51.788;21.582;2023-07-29T16:14:32;99328.11;;;25.92;56.60
51530;BME280;37613;51.788;21.582;2023-07-29T16:18:34;99324.36;;;25.91;56.67
51530;BME280;37613;51.788;21.582;2023-07-29T16:22:36;99324.53;;;25.86;56.73
51530;BME280;37613;51.788;21.582;2023-07-29T16:26:37;99318.66;;;25.83;56.86
51530;BME280;37613;51.788;21.582;2023-07-29T16:30:39;99318.46;;;25.83;57.22
51530;BME280;37613;51.788;21.582;2023-07-29T16:34:41;99317.92;;;25.79;57.22
51530;BME280;37613;51.788;21.582;2023-07-29T16:38:43;99315.68;;;25.74;57.13
51530;BME280;37613;51.788;21.582;2023-07-29T16:42:46;99314.40;;;25.69;57.14
51530;BME280;37613;51.788;21.582;2023-07-29T16:46:48;99310.06;;;25.68;57.49
51530;BME280;37613;51.788;21.582;2023-07-29T16:50:50;99302.09;;;25.65;57.36
51530;BME280;37613;51.788;21.582;2023-07-29T16:54:52;99298.10;;;25.62;57.64
51530;BME280;37613;51.788;21.582;2023-07-29T16:58:54;99298.21;;;25.61;57.75
51530;BME280;37613;51.788;21.582;2023-07-29T17:02:55;99298.57;;;25.59;57.92
51530;BME280;37613;51.788;21.582;2023-07-29T17:06:57;99292.73;;;25.54;57.78
51530;BME280;37613;51.788;21.582;2023-07-29T17:10:59;99293.57;;;25.47;58.19
51530;BME280;37613;51.788;21.582;2023-07-29T17:15:01;99291.48;;;25.41;58.28
51530;BME280;37613;51.788;21.582;2023-07-29T17:19:04;99292.58;;;25.35;58.64
51530;BME280;37613;51.788;21.582;2023-07-29T17:23:06;99286.98;;;25.29;58.63
51530;BME280;37613;51.788;21.582;2023-07-29T17:27:07;99285.11;;;25.23;58.79
51530;BME280;37613;51.788;21.582;2023-07-29T17:31:09;99291.77;;;25.16;58.83
51530;BME280;37613;51.788;21.582;2023-07-29T17:35:11;99294.04;;;25.05;59.03
51530;BME280;37613;51.788;21.582;2023-07-29T17:39:15;99293.27;;;24.94;59.27
51530;BME280;37613;51.788;21.582;2023-07-29T17:43:17;99294.92;;;24.82;59.66
51530;BME280;37613;51.788;21.582;2023-07-29T17:47:19;99294.58;;;24.67;60.07
51530;BME280;37613;51.788;21.582;2023-07-29T17:51:21;99289.43;;;24.52;60.16
51530;BME280;37613;51.788;21.582;2023-07-29T17:55:23;99290.86;;;24.37;61.30
51530;BME280;37613;51.788;21.582;2023-07-29T17:59:25;99291.70;;;24.22;61.27
51530;BME280;37613;51.788;21.582;2023-07-29T18:03:27;99290.80;;;24.08;61.31
51530;BME280;37613;51.788;21.582;2023-07-29T18:07:29;99291.38;;;23.94;61.54
51530;BME280;37613;51.788;21.582;2023-07-29T18:11:32;99291.02;;;23.79;62.35
51530;BME280;37613;51.788;21.582;2023-07-29T18:15:34;99290.46;;;23.65;62.63
51530;BME280;37613;51.788;21.582;2023-07-29T18:19:36;99300.03;;;23.52;62.75
51530;BME280;37613;51.788;21.582;2023-07-29T18:23:43;99303.21;;;23.42;63.33
51530;BME280;37613;51.788;21.582;2023-07-29T18:27:45;99294.70;;;23.32;63.64
51530;BME280;37613;51.788;21.582;2023-07-29T18:31:48;99294.60;;;23.23;64.13
51530;BME280;37613;51.788;21.582;2023-07-29T18:35:49;99297.38;;;23.14;65.71
51530;BME280;37613;51.788;21.582;2023-07-29T18:39:51;99298.43;;;23.03;65.61
51530;BME280;37613;51.788;21.582;2023-07-29T18:43:53;99296.28;;;22.96;65.43
51530;BME280;37613;51.788;21.582;2023-07-29T18:47:59;99297.59;;;22.91;66.97
51530;BME280;37613;51.788;21.582;2023-07-29T18:52:02;99292.04;;;22.85;66.53
51530;BME280;37613;51.788;21.582;2023-07-29T18:56:04;99284.52;;;22.80;66.70
51530;BME280;37613;51.788;21.582;2023-07-29T19:00:07;99288.32;;;22.74;67.20
51530;BME280;37613;51.788;21.582;2023-07-29T19:04:11;99276.96;;;22.64;67.53
51530;BME280;37613;51.788;21.582;2023-07-29T19:08:14;99269.36;;;22.55;67.98
51530;BME280;37613;51.788;21.582;2023-07-29T19:12:17;99263.18;;;22.44;67.96
51530;BME280;37613;51.788;21.582;2023-07-29T19:16:19;99265.35;;;22.34;68.28
51530;BME280;37613;51.788;21.582;2023-07-29T19:20:22;99265.65;;;22.23;68.84
51530;BME280;37613;51.788;21.582;2023-07-29T19:24:24;99261.75;;;22.12;69.22
51530;BME280;37613;51.788;21.582;2023-07-29T19:28:27;99261.33;;;22.01;69.70
51530;BME280;37613;51.788;21.582;2023-07-29T19:32:30;99261.18;;;21.92;70.21
51530;BME280;37613;51.788;21.582;2023-07-29T19:36:32;99257.22;;;21.85;70.45
51530;BME280;37613;51.788;21.582;2023-07-29T19:40:36;99257.27;;;21.77;70.84
51530;BME280;37613;51.788;21.582;2023-07-29T19:44:39;99260.11;;;21.70;71.18
51530;BME280;37613;51.788;21.582;2023-07-29T19:48:41;99263.98;;;21.63;71.64
51530;BME280;37613;51.788;21.582;2023-07-29T19:52:44;99269.17;;;21.57;71.97
51530;BME280;37613;51.788;21.582;2023-07-29T19:56:47;99273.84;;;21.53;72.32
51530;BME280;37613;51.788;21.582;2023-07-29T20:00:49;99284.55;;;21.50;72.94
51530;BME280;37613;51.788;21.582;2023-07-29T20:04:53;99285.36;;;21.47;73.55
51530;BME280;37613;51.788;21.582;2023-07-29T20:08:56;99289.13;;;21.45;73.77
51530;BME280;37613;51.788;21.582;2023-07-29T20:12:59;99286.39;;;21.42;73.94
51530;BME280;37613;51.788;21.582;2023-07-29T20:17:01;99285.47;;;21.38;74.19
51530;BME280;37613;51.788;21.582;2023-07-29T20:21:03;99282.08;;;21.33;74.37
51530;BME280;37613;51.788;21.582;2023-07-29T20:25:06;99282.08;;;21.29;74.56
51530;BME280;37613;51.788;21.582;2023-07-29T20:29:09;99285.73;;;21.25;74.82
51530;BME280;37613;51.788;21.582;2023-07-29T20:33:12;99284.04;;;21.21;75.11
51530;BME280;37613;51.788;21.582;2023-07-29T20:37:15;99277.84;;;21.17;75.42
51530;BME280;37613;51.788;21.582;2023-07-29T20:41:17;99279.13;;;21.14;75.77
51530;BME280;37613;51.788;21.582;2023-07-29T20:45:20;99278.13;;;21.12;75.98
51530;BME280;37613;51.788;21.582;2023-07-29T20:49:22;99280.36;;;21.10;76.45
51530;BME280;37613;51.788;21.582;2023-07-29T20:53:25;99285.60;;;21.08;76.63
51530;BME280;37613;51.788;21.582;2023-07-29T20:57:28;99282.00;;;21.04;76.88
51530;BME280;37613;51.788;21.582;2023-07-29T21:01:30;99274.16;;;20.99;77.13
51530;BME280;37613;51.788;21.582;2023-07-29T21:05:33;99273.67;;;20.94;77.35
51530;BME280;37613;51.788;21.582;2023-07-29T21:09:38;99271.35;;;20.88;77.55
51530;BME280;37613;51.788;21.582;2023-07-29T21:13:40;99265.23;;;20.81;77.68
51530;BME280;37613;51.788;21.582;2023-07-29T21:17:42;99262.84;;;20.75;77.94
51530;BME280;37613;51.788;21.582;2023-07-29T21:21:44;99267.92;;;20.67;78.05
51530;BME280;37613;51.788;21.582;2023-07-29T21:25:49;99267.70;;;20.60;78.33
51530;BME280;37613;51.788;21.582;2023-07-29T21:29:52;99269.05;;;20.54;78.60
51530;BME280;37613;51.788;21.582;2023-07-29T21:33:54;99263.73;;;20.51;78.88